createdAt,value
2023-04-06T00:01:48.059Z,68.82
2023-04-06T00:04:15.771Z,69.78
2023-04-06T00:06:43.276Z,70.60
2023-04-06T00:09:10.850Z,70.80
2023-04-06T00:11:38.229Z,70.76
2023-04-06T00:14:05.738Z,71.04
2023-04-06T00:16:33.175Z,69.95
2023-04-06T00:19:00.599Z,69.57
2023-04-06T00:21:28.297Z,70.08
2023-04-06T00:23:56.106Z,69.47
2023-04-06T00:26:23.431Z,69.79
2023-04-06T00:28:53.136Z,69.54
2023-04-06T00:31:20.487Z,69.99
2023-04-06T00:33:49.427Z,71.78
2023-04-06T00:36:16.832Z,71.29
2023-04-06T00:38:44.326Z,70.70
2023-04-06T00:41:11.766Z,73.17
2023-04-06T00:43:39.088Z,70.92
2023-04-06T00:46:07.029Z,70.46
2023-04-06T00:48:34.615Z,71.25
2023-04-06T00:51:02.772Z,72.81
2023-04-06T00:53:30.408Z,74.21
2023-04-06T00:55:59.391Z,73.43
2023-04-06T00:58:27.136Z,73.02
2023-04-06T01:01:02.646Z,73.19
2023-04-06T01:03:30.135Z,73.23
2023-04-06T01:05:59.393Z,73.72
2023-04-06T01:08:33.198Z,74.52
2023-04-06T01:11:13.452Z,73.85
2023-04-06T01:13:41.101Z,74.42
2023-04-06T01:16:16.607Z,74.39
2023-04-06T01:19:13.096Z,74.99
2023-04-06T01:21:45.096Z,75.62
2023-04-06T01:24:30.685Z,75.76
2023-04-06T01:27:11.690Z,75.26
2023-04-06T01:29:48.057Z,74.89
2023-04-06T01:32:22.585Z,75.39
2023-04-06T01:34:52.255Z,75.40
2023-04-06T01:37:19.778Z,75.72
2023-04-06T01:39:47.595Z,76.52
2023-04-06T01:42:24.150Z,77.17
2023-04-06T01:44:52.006Z,77.73
2023-04-06T01:47:19.399Z,77.21
2023-04-06T01:49:47.469Z,77.46
2023-04-06T01:52:16.800Z,76.94
2023-04-06T01:54:51.712Z,77.48
2023-04-06T01:57:36.041Z,77.63
2023-04-06T02:00:15.529Z,77.66
2023-04-06T02:02:47.487Z,77.21
2023-04-06T02:05:21.948Z,77.68
2023-04-06T02:07:51.326Z,78.29
2023-04-06T02:10:23.159Z,77.78
2023-04-06T02:12:50.708Z,77.97
2023-04-06T02:15:24.244Z,77.98
2023-04-06T02:17:52.658Z,78.38
2023-04-06T02:20:20.163Z,77.85
2023-04-06T02:22:47.611Z,78.18
2023-04-06T02:25:15.110Z,79.05
2023-04-06T02:27:42.608Z,80.44
2023-04-06T02:30:10.847Z,80.59
2023-04-06T02:32:38.278Z,80.15
2023-04-06T02:35:06.125Z,80.74
2023-04-06T02:37:35.440Z,81.59
2023-04-06T02:40:02.731Z,81.68
2023-04-06T02:42:31.828Z,81.67
2023-04-06T02:44:59.206Z,81.84
2023-04-06T02:47:31.141Z,83.03
2023-04-06T02:49:58.474Z,83.82
2023-04-06T02:52:26.156Z,83.85
2023-04-06T02:54:53.482Z,82.75
2023-04-06T02:57:26.752Z,82.50
2023-04-06T02:59:54.302Z,82.27
2023-04-06T03:02:28.926Z,81.77
2023-04-06T03:05:05.629Z,84.53
2023-04-06T03:07:37.687Z,86.40
2023-04-06T03:10:06.328Z,87.45
2023-04-06T03:12:34.019Z,87.16
2023-04-06T03:15:18.092Z,86.85
2023-04-06T03:17:50.930Z,85.94
2023-04-06T03:20:43.708Z,86.64
2023-04-06T03:23:11.795Z,86.49
2023-04-06T03:25:42.510Z,87.13
2023-04-06T03:28:14.338Z,88.35
2023-04-06T03:30:50.902Z,89.15
2023-04-06T03:33:24.566Z,90.68
2023-04-06T03:35:55.974Z,89.89
2023-04-06T03:38:26.304Z,90.12
2023-04-06T03:40:54.680Z,90.11
2023-04-06T03:43:26.014Z,90.31
2023-04-06T03:45:53.396Z,88.60
2023-04-06T03:48:21.250Z,88.33
2023-04-06T03:50:48.783Z,89.54
2023-04-06T03:53:16.328Z,88.74
2023-04-06T03:55:43.521Z,90.10
2023-04-06T03:58:11.022Z,89.89
2023-04-06T04:00:38.876Z,89.46
2023-04-06T04:03:06.585Z,90.14
2023-04-06T04:05:33.938Z,89.74
2023-04-06T04:08:01.421Z,89.21
2023-04-06T04:10:28.742Z,89.93
2023-04-06T04:12:56.194Z,89.65
2023-04-06T04:15:24.031Z,88.47
2023-04-06T04:17:51.760Z,89.22
2023-04-06T04:20:19.290Z,90.08
2023-04-06T04:22:46.614Z,90.35
2023-04-06T04:25:15.675Z,91.05
2023-04-06T04:27:47.821Z,90.00
2023-04-06T04:30:16.457Z,90.13
2023-04-06T04:32:43.847Z,90.79
2023-04-06T04:35:12.370Z,90.15
2023-04-06T04:37:42.646Z,91.40
2023-04-06T04:40:11.796Z,89.11
2023-04-06T04:42:53.412Z,88.64
2023-04-06T04:45:27.368Z,88.34
2023-04-06T04:47:54.822Z,88.37
2023-04-06T04:50:25.212Z,88.49
2023-04-06T04:52:56.766Z,88.19
2023-04-06T04:55:27.131Z,87.40
2023-04-06T04:57:58.087Z,87.21
2023-04-06T05:00:43.221Z,86.24
2023-04-06T05:03:24.334Z,86.45
2023-04-06T05:06:07.310Z,85.71
2023-04-06T05:08:37.922Z,86.24
2023-04-06T05:11:06.078Z,83.96
2023-04-06T05:13:37.987Z,83.21
2023-04-06T05:16:11.973Z,83.36
2023-04-06T05:18:39.506Z,82.53
2023-04-06T05:21:07.685Z,82.50
2023-04-06T05:23:48.543Z,82.35
2023-04-06T05:26:15.963Z,81.09
2023-04-06T05:28:45.406Z,79.72
2023-04-06T05:31:13.790Z,80.71
2023-04-06T05:33:47.428Z,80.08
2023-04-06T05:36:17.298Z,81.16
2023-04-06T05:38:47.170Z,79.30
2023-04-06T05:41:34.773Z,79.34
2023-04-06T05:44:02.400Z,77.01
2023-04-06T05:46:31.146Z,76.33
2023-04-06T05:49:00.221Z,74.33
2023-04-06T05:51:31.369Z,74.11
2023-04-06T05:53:59.122Z,74.73
2023-04-06T05:56:27.382Z,71.79
2023-04-06T05:58:54.969Z,73.50
2023-04-06T06:01:27.851Z,70.81
2023-04-06T06:03:55.252Z,70.23
2023-04-06T06:06:27.119Z,69.11
2023-04-06T06:09:07.704Z,68.27
2023-04-06T06:11:41.711Z,68.66
2023-04-06T06:14:10.170Z,69.83
2023-04-06T06:16:39.960Z,67.43
2023-04-06T06:19:09.038Z,66.70
2023-04-06T06:21:37.624Z,65.65
2023-04-06T06:24:08.011Z,63.65
2023-04-06T06:26:38.153Z,62.25
2023-04-06T06:29:08.619Z,61.18
2023-04-06T06:31:39.055Z,58.79
2023-04-06T06:34:06.527Z,59.63
2023-04-06T06:36:36.442Z,56.56
2023-04-06T06:39:07.386Z,55.91
2023-04-06T06:41:35.500Z,53.69
2023-04-06T06:44:03.452Z,52.55
2023-04-06T06:46:31.026Z,51.45
2023-04-06T06:48:59.884Z,50.38
2023-04-06T06:51:27.388Z,51.65
2023-04-06T06:53:54.816Z,49.18
2023-04-06T06:56:23.222Z,49.43
2023-04-06T06:58:52.631Z,48.33
2023-04-06T07:01:20.486Z,47.06
2023-04-06T07:03:48.040Z,45.16
2023-04-06T07:06:15.393Z,45.57
2023-04-06T07:08:42.768Z,43.72
2023-04-06T07:11:10.278Z,43.00
2023-04-06T07:13:37.653Z,43.20
2023-04-06T07:16:05.565Z,40.74
2023-04-06T07:18:35.645Z,39.98
2023-04-06T07:21:03.909Z,38.27
2023-04-06T07:23:31.307Z,37.51
2023-04-06T07:25:58.672Z,38.59
2023-04-06T07:28:26.101Z,39.27
2023-04-06T07:30:55.442Z,38.17
2023-04-06T07:33:23.466Z,37.63
2023-04-06T07:35:52.683Z,35.32
2023-04-06T07:38:20.368Z,35.66
2023-04-06T07:40:47.780Z,33.97
2023-04-06T07:43:15.309Z,34.01
2023-04-06T07:45:43.139Z,33.30
2023-04-06T07:48:11.475Z,34.34
2023-04-06T07:50:39.721Z,33.38
2023-04-06T07:53:07.727Z,36.00
2023-04-06T07:55:35.948Z,35.69
2023-04-06T07:58:03.311Z,36.62
2023-04-06T08:00:32.569Z,37.55
2023-04-06T08:03:00.197Z,38.45
2023-04-06T08:05:27.774Z,39.16
2023-04-06T08:07:55.202Z,40.78
2023-04-06T08:10:22.539Z,40.06
2023-04-06T08:12:49.813Z,41.71
2023-04-06T08:15:19.219Z,41.57
2023-04-06T08:17:46.730Z,38.20
2023-04-06T08:20:14.071Z,37.21
2023-04-06T08:22:41.377Z,37.65
2023-04-06T08:25:09.092Z,38.39
2023-04-06T08:27:36.529Z,37.96
2023-04-06T08:30:04.306Z,37.90
2023-04-06T08:32:32.029Z,37.61
2023-04-06T08:34:59.389Z,37.58
2023-04-06T08:37:26.886Z,38.69
2023-04-06T08:39:54.261Z,37.40
2023-04-06T08:42:23.642Z,36.65
2023-04-06T08:44:53.500Z,33.54
2023-04-06T08:47:24.067Z,33.84
2023-04-06T08:49:54.853Z,30.72
2023-04-06T08:52:22.263Z,30.68
2023-04-06T08:54:49.750Z,27.96
2023-04-06T08:57:17.822Z,27.44
2023-04-06T08:59:46.221Z,27.70
2023-04-06T09:02:19.600Z,27.76
2023-04-06T09:04:49.861Z,29.25
2023-04-06T09:07:17.825Z,28.41
2023-04-06T09:09:48.813Z,26.02
2023-04-06T09:12:31.294Z,25.81
2023-04-06T09:14:59.852Z,28.06
2023-04-06T09:17:34.889Z,30.22
2023-04-06T09:20:04.174Z,31.39
2023-04-06T09:22:43.064Z,31.80
2023-04-06T09:25:19.100Z,31.82
2023-04-06T09:27:46.533Z,33.19
2023-04-06T09:30:17.840Z,34.65
2023-04-06T09:32:53.396Z,37.08
2023-04-06T09:35:22.129Z,38.25
2023-04-06T09:37:52.907Z,37.65
2023-04-06T09:40:22.156Z,38.32
2023-04-06T09:42:53.055Z,38.55
2023-04-06T09:45:21.913Z,40.33
2023-04-06T09:47:52.462Z,38.70
2023-04-06T09:50:20.900Z,38.53
2023-04-06T09:52:52.324Z,37.60
2023-04-06T09:55:31.629Z,39.27
2023-04-06T09:58:20.262Z,39.37
2023-04-06T10:01:18.425Z,39.58
2023-04-06T10:04:13.547Z,39.03
2023-04-06T10:06:41.990Z,40.41
2023-04-06T10:09:10.372Z,40.73
2023-04-06T10:11:38.177Z,42.76
2023-04-06T10:14:06.604Z,40.61
2023-04-06T10:16:34.286Z,40.10
2023-04-06T10:19:32.716Z,39.30
2023-04-06T10:22:03.839Z,39.56
2023-04-06T10:24:31.328Z,40.18
2023-04-06T10:27:07.417Z,41.08
2023-04-06T10:29:49.935Z,39.80
2023-04-06T10:32:17.582Z,41.35
2023-04-06T10:34:44.910Z,41.20
2023-04-06T10:37:16.961Z,40.90
2023-04-06T10:39:59.355Z,41.86
2023-04-06T10:42:38.502Z,42.56
2023-04-06T10:45:21.639Z,42.02
2023-04-06T10:47:49.425Z,42.48
2023-04-06T10:50:18.230Z,40.30
2023-04-06T10:52:47.623Z,39.38
2023-04-06T10:55:16.079Z,39.36
2023-04-06T10:57:43.585Z,40.38
2023-04-06T11:00:13.968Z,39.39
2023-04-06T11:02:41.774Z,39.46
2023-04-06T11:05:09.740Z,36.57
2023-04-06T11:07:37.132Z,35.07
2023-04-06T11:10:15.594Z,34.50
2023-04-06T11:12:45.933Z,34.59
2023-04-06T11:15:13.222Z,33.78
2023-04-06T11:17:40.912Z,34.12
2023-04-06T11:20:12.379Z,34.57
2023-04-06T11:22:53.626Z,35.24
2023-04-06T11:25:21.059Z,35.48
2023-04-06T11:27:49.393Z,37.26
2023-04-06T11:30:16.878Z,38.22
2023-04-06T11:32:46.845Z,38.37
2023-04-06T11:35:23.440Z,38.75
2023-04-06T11:37:51.610Z,38.35
2023-04-06T11:40:25.945Z,37.30
2023-04-06T11:42:57.595Z,39.85
2023-04-06T11:45:25.076Z,39.14
2023-04-06T11:48:01.551Z,39.09
2023-04-06T11:50:35.681Z,40.10
2023-04-06T11:53:04.237Z,39.95
2023-04-06T11:55:39.862Z,40.92
2023-04-06T11:58:08.186Z,40.28
2023-04-06T12:00:35.868Z,38.84
2023-04-06T12:03:03.389Z,39.54
2023-04-06T12:05:31.008Z,39.79
2023-04-06T12:08:01.079Z,40.83
2023-04-06T12:10:30.813Z,40.94
2023-04-06T12:12:58.206Z,42.68
2023-04-06T12:15:25.522Z,42.90
2023-04-06T12:17:53.350Z,42.96
2023-04-06T12:20:26.549Z,42.94
2023-04-06T12:22:54.757Z,41.94
2023-04-06T12:25:22.186Z,42.63
2023-04-06T12:27:49.607Z,42.21
2023-04-06T12:30:17.252Z,44.18
2023-04-06T12:32:44.829Z,43.14
2023-04-06T12:35:14.128Z,43.37
2023-04-06T12:37:41.851Z,43.90
2023-04-06T12:40:11.638Z,44.68
2023-04-06T12:42:42.435Z,44.61
2023-04-06T12:45:10.740Z,44.44
2023-04-06T12:47:38.844Z,45.22
2023-04-06T12:50:07.656Z,45.82
2023-04-06T12:52:36.629Z,44.46
2023-04-06T12:55:06.099Z,45.61
2023-04-06T12:57:33.504Z,47.17
2023-04-06T13:00:01.301Z,48.66
2023-04-06T13:02:28.971Z,49.35
2023-04-06T13:04:56.459Z,47.22
2023-04-06T13:07:24.016Z,47.55
2023-04-06T13:09:52.359Z,47.46
2023-04-06T13:12:20.019Z,47.81
2023-04-06T13:14:51.937Z,48.49
2023-04-06T13:17:19.334Z,49.23
2023-04-06T13:19:46.667Z,49.20
2023-04-06T13:22:13.957Z,47.95
2023-04-06T13:24:41.230Z,51.04
2023-04-06T13:27:08.550Z,50.63
2023-04-06T13:29:36.027Z,49.62
2023-04-06T13:32:03.395Z,50.13
2023-04-06T13:34:30.738Z,50.40
2023-04-06T13:36:58.112Z,51.95
2023-04-06T13:39:25.544Z,53.75
2023-04-06T13:41:57.237Z,54.89
2023-04-06T13:44:24.722Z,56.35
2023-04-06T13:46:52.198Z,57.81
2023-04-06T13:49:19.729Z,62.63
2023-04-06T13:51:47.132Z,65.02
2023-04-06T13:54:14.402Z,66.50
2023-04-06T13:56:41.744Z,66.78
2023-04-06T13:59:08.988Z,66.41
2023-04-06T14:01:36.484Z,67.00
2023-04-06T14:04:04.017Z,65.63
2023-04-06T14:06:32.297Z,65.92
2023-04-06T14:09:00.317Z,66.66
2023-04-06T14:11:27.953Z,66.15
2023-04-06T14:13:57.799Z,64.97
2023-04-06T14:16:26.110Z,65.53
2023-04-06T14:18:53.420Z,66.23
2023-04-06T14:21:21.079Z,67.35
2023-04-06T14:23:48.346Z,66.80
2023-04-06T14:26:16.357Z,67.36
2023-04-06T14:28:43.941Z,68.17
2023-04-06T14:31:14.663Z,68.08
2023-04-06T14:33:43.443Z,67.50
2023-04-06T14:36:11.938Z,67.27
2023-04-06T14:38:40.495Z,66.38
2023-04-06T14:41:09.212Z,65.88
2023-04-06T14:43:36.468Z,65.16
2023-04-06T14:46:04.044Z,64.22
2023-04-06T14:48:31.422Z,67.30
2023-04-06T14:50:59.081Z,66.95
2023-04-06T14:53:27.189Z,68.46
2023-04-06T14:55:54.983Z,69.94
2023-04-06T14:58:24.109Z,68.95
2023-04-06T15:01:01.164Z,70.04
2023-04-06T15:03:30.499Z,71.48
2023-04-06T15:05:58.663Z,73.52
2023-04-06T15:08:26.438Z,71.91
2023-04-06T15:10:55.746Z,72.09
2023-04-06T15:13:23.229Z,71.06
2023-04-06T15:15:52.664Z,71.88
2023-04-06T15:18:21.085Z,73.28
2023-04-06T15:20:48.803Z,75.35
2023-04-06T15:23:16.200Z,77.03
2023-04-06T15:25:43.552Z,78.05
2023-04-06T15:28:11.156Z,78.56
2023-04-06T15:30:38.921Z,80.53
2023-04-06T15:33:09.479Z,79.42
2023-04-06T15:35:41.114Z,79.61
2023-04-06T15:38:10.092Z,78.61
2023-04-06T15:40:48.402Z,77.26
2023-04-06T15:43:16.666Z,75.31
2023-04-06T15:45:43.965Z,77.83
2023-04-06T15:48:11.355Z,77.22
2023-04-06T15:50:38.797Z,78.64
2023-04-06T15:53:06.184Z,79.09
2023-04-06T15:55:33.640Z,80.07
2023-04-06T15:58:01.105Z,80.32
2023-04-06T16:00:28.958Z,80.25
2023-04-06T16:02:57.309Z,81.32
2023-04-06T16:05:25.733Z,81.94
2023-04-06T16:07:55.020Z,83.58
2023-04-06T16:10:22.309Z,84.39
2023-04-06T16:12:49.581Z,84.08
2023-04-06T16:15:17.232Z,85.98
2023-04-06T16:17:44.597Z,87.37
2023-04-06T16:20:12.950Z,89.40
2023-04-06T16:22:41.143Z,87.29
2023-04-06T16:25:09.289Z,85.87
2023-04-06T16:27:36.758Z,86.65
2023-04-06T16:30:05.022Z,86.44
2023-04-06T16:32:32.365Z,88.73
2023-04-06T16:34:59.675Z,88.31
2023-04-06T16:37:29.729Z,87.45
2023-04-06T16:39:57.520Z,90.94
2023-04-06T16:42:25.301Z,96.29
2023-04-06T16:44:52.787Z,98.36
2023-04-06T16:47:20.746Z,100.00
2023-04-06T16:49:47.960Z,100.00
2023-04-06T16:52:15.236Z,100.00
2023-04-06T16:54:42.366Z,100.00
2023-04-06T16:57:09.756Z,100.00
2023-04-06T16:59:37.262Z,100.00
2023-04-06T17:02:04.525Z,100.00
2023-04-06T17:04:31.870Z,100.00
2023-04-06T17:06:59.186Z,100.00
2023-04-06T17:09:26.608Z,100.00
2023-04-06T17:11:53.827Z,100.00
2023-04-06T17:14:21.198Z,100.00
2023-04-06T17:16:48.704Z,100.00
2023-04-06T17:19:16.215Z,100.00
2023-04-06T17:21:43.434Z,100.00
2023-04-06T17:24:10.932Z,100.00
2023-04-06T17:26:38.266Z,100.00
2023-04-06T17:29:05.549Z,100.00
2023-04-06T17:31:33.060Z,100.00
2023-04-06T17:34:00.862Z,100.00
2023-04-06T17:36:28.572Z,100.00
2023-04-06T17:38:55.977Z,100.00
2023-04-06T17:41:24.202Z,100.00
2023-04-06T17:43:51.613Z,100.00
2023-04-06T17:46:20.659Z,100.00
2023-04-06T17:48:48.660Z,100.00
2023-04-06T17:51:18.873Z,100.00
2023-04-06T17:53:46.901Z,100.00
2023-04-06T17:56:14.497Z,100.00
2023-04-06T17:58:42.072Z,100.00
2023-04-06T18:01:13.024Z,100.00
2023-04-06T18:03:40.415Z,100.00
2023-04-06T18:06:16.180Z,100.00
2023-04-06T18:08:43.762Z,100.00
2023-04-06T18:11:21.702Z,100.00
2023-04-06T18:13:49.696Z,100.00
2023-04-06T18:16:17.746Z,100.00
2023-04-06T18:18:45.413Z,100.00
2023-04-06T18:21:12.675Z,100.00
2023-04-06T18:23:40.065Z,100.00
2023-04-06T18:26:07.657Z,100.00
2023-04-06T18:28:35.007Z,100.00
2023-04-06T18:31:02.554Z,100.00
2023-04-06T18:33:30.099Z,100.00
2023-04-06T18:35:57.336Z,100.00
2023-04-06T18:38:24.636Z,100.00
2023-04-06T18:40:52.645Z,100.00
2023-04-06T18:43:19.909Z,100.00
2023-04-06T18:45:47.750Z,100.00
2023-04-06T18:48:15.030Z,100.00
2023-04-06T18:50:55.576Z,100.00
2023-04-06T18:53:22.750Z,100.00
2023-04-06T18:55:51.626Z,100.00
2023-04-06T18:58:19.451Z,100.00
2023-04-06T19:00:46.849Z,100.00
2023-04-06T19:03:14.282Z,100.00
2023-04-06T19:05:42.424Z,100.00
2023-04-06T19:08:10.499Z,100.00
2023-04-06T19:10:38.719Z,100.00
2023-04-06T19:13:06.163Z,100.00
2023-04-06T19:15:33.606Z,100.00
2023-04-06T19:18:00.961Z,100.00
2023-04-06T19:20:28.210Z,100.00
2023-04-06T19:25:28.329Z,100.00
2023-04-06T19:27:56.746Z,100.00
2023-04-06T19:30:24.387Z,100.00
2023-04-06T19:32:51.714Z,100.00
2023-04-06T19:35:19.232Z,100.00
2023-04-06T19:37:46.590Z,100.00
2023-04-06T19:40:13.881Z,100.00
2023-04-06T19:42:41.160Z,100.00
2023-04-06T19:45:09.094Z,100.00
2023-04-06T19:47:36.801Z,100.00
2023-04-06T19:50:06.002Z,100.00
2023-04-06T19:52:33.874Z,100.00
2023-04-06T19:55:01.180Z,100.00
2023-04-06T19:57:28.664Z,100.00
2023-04-06T19:59:56.520Z,100.00
2023-04-06T20:02:23.819Z,100.00
2023-04-06T20:04:51.336Z,100.00
2023-04-06T20:07:18.657Z,100.00
2023-04-06T20:09:45.960Z,100.00
2023-04-06T20:12:13.265Z,100.00
2023-04-06T20:14:40.496Z,100.00
2023-04-06T20:17:07.793Z,100.00
2023-04-06T20:19:35.108Z,100.00
2023-04-06T20:22:03.801Z,100.00
2023-04-06T20:24:31.654Z,100.00
2023-04-06T20:26:59.460Z,100.00
2023-04-06T20:29:27.417Z,100.00
2023-04-06T20:31:54.834Z,100.00
2023-04-06T20:34:25.972Z,100.00
2023-04-06T20:36:53.775Z,100.00
2023-04-06T20:39:21.773Z,100.00
2023-04-06T20:41:49.231Z,100.00
2023-04-06T20:44:16.938Z,100.00
2023-04-06T20:46:45.816Z,100.00
2023-04-06T20:49:13.310Z,100.00
2023-04-06T20:51:42.595Z,100.00
2023-04-06T20:54:09.811Z,100.00
2023-04-06T20:56:37.140Z,100.00
2023-04-06T20:59:07.507Z,100.00
2023-04-06T21:01:34.799Z,100.00
2023-04-06T21:04:04.246Z,100.00
2023-04-06T21:06:32.460Z,100.00
2023-04-06T21:09:01.284Z,100.00
2023-04-06T21:11:28.571Z,100.00
2023-04-06T21:13:56.657Z,100.00
2023-04-06T21:16:23.882Z,100.00
2023-04-06T21:18:51.902Z,100.00
2023-04-06T21:21:19.082Z,100.00
2023-04-06T21:23:46.438Z,100.00
2023-04-06T21:26:13.784Z,100.00
2023-04-06T21:28:41.003Z,100.00
2023-04-06T21:31:09.663Z,100.00
2023-04-06T21:33:36.924Z,100.00
2023-04-06T21:36:08.603Z,100.00
2023-04-06T21:38:35.899Z,100.00
2023-04-06T21:41:03.508Z,100.00
2023-04-06T21:43:30.927Z,100.00
2023-04-06T21:45:58.146Z,100.00
2023-04-06T21:48:25.434Z,100.00
2023-04-06T21:50:52.839Z,100.00
2023-04-06T21:53:20.251Z,100.00
2023-04-06T21:55:48.156Z,100.00
2023-04-06T21:58:15.959Z,100.00
2023-04-06T22:00:43.461Z,100.00
2023-04-06T22:03:11.238Z,100.00
2023-04-06T22:05:38.644Z,100.00
2023-04-06T22:08:05.943Z,100.00
2023-04-06T22:10:33.232Z,100.00
2023-04-06T22:13:00.492Z,100.00
2023-04-06T22:15:27.704Z,100.00
2023-04-06T22:17:55.066Z,100.00
2023-04-06T22:20:22.291Z,100.00
2023-04-06T22:22:50.094Z,100.00
2023-04-06T22:25:17.353Z,100.00
2023-04-06T22:27:44.815Z,100.00
2023-04-06T22:30:12.411Z,100.00
2023-04-06T22:32:39.742Z,100.00
2023-04-06T22:35:08.132Z,100.00
2023-04-06T22:37:35.476Z,100.00
2023-04-06T22:40:02.886Z,100.00
2023-04-06T22:42:30.148Z,100.00
2023-04-06T22:44:57.293Z,100.00
2023-04-06T22:47:24.601Z,100.00
2023-04-06T22:49:51.964Z,100.00
2023-04-06T22:52:19.202Z,100.00
2023-04-06T22:54:46.594Z,100.00
2023-04-06T22:57:13.906Z,100.00
2023-04-06T22:59:41.318Z,100.00
2023-04-06T23:02:08.969Z,100.00
2023-04-06T23:04:36.375Z,100.00
2023-04-06T23:07:03.556Z,100.00
2023-04-06T23:09:31.231Z,100.00
2023-04-06T23:11:58.447Z,100.00
2023-04-06T23:14:25.665Z,100.00
2023-04-06T23:16:52.879Z,100.00
2023-04-06T23:19:20.195Z,100.00
2023-04-06T23:21:47.532Z,100.00
2023-04-06T23:24:14.761Z,100.00
2023-04-06T23:26:41.979Z,100.00
2023-04-06T23:29:09.202Z,100.00
2023-04-06T23:31:36.520Z,100.00
2023-04-06T23:34:04.047Z,100.00
2023-04-06T23:36:32.117Z,100.00
2023-04-06T23:38:59.299Z,100.00
2023-04-06T23:41:27.743Z,100.00
2023-04-06T23:43:56.137Z,100.00
2023-04-06T23:46:23.524Z,100.00
2023-04-06T23:48:50.857Z,100.00
2023-04-06T23:51:18.131Z,100.00
2023-04-06T23:53:46.294Z,100.00
2023-04-06T23:56:13.554Z,100.00
2023-04-06T23:58:41.180Z,100.00
